sensor_id;sensor_type;location;lat;lon;timestamp;temperature;humidity
63051;SHT30;49136;47.416;19.402;2023-07-24T00:00:59;18.71;92.13
63051;SHT30;49136;47.416;19.402;2023-07-24T00:03:24;18.69;91.75
63051;SHT30;49136;47.416;19.402;2023-07-24T00:05:50;18.69;93.28
63051;SHT30;49136;47.416;19.402;2023-07-24T00:08:15;18.61;94.16
63051;SHT30;49136;47.416;19.402;2023-07-24T00:10:41;18.58;94.43
63051;SHT30;49136;47.416;19.402;2023-07-24T00:13:07;18.54;93.31
63051;SHT30;49136;47.416;19.402;2023-07-24T00:15:32;18.51;94.00
63051;SHT30;49136;47.416;19.402;2023-07-24T00:17:58;18.47;95.80
63051;SHT30;49136;47.416;19.402;2023-07-24T00:20:23;18.54;95.82
63051;SHT30;49136;47.416;19.402;2023-07-24T00:22:50;18.63;95.10
63051;SHT30;49136;47.416;19.402;2023-07-24T00:25:15;18.67;94.56
63051;SHT30;49136;47.416;19.402;2023-07-24T00:27:40;18.74;94.06
63051;SHT30;49136;47.416;19.402;2023-07-24T00:30:07;18.72;94.07
63051;SHT30;49136;47.416;19.402;2023-07-24T00:32:32;18.69;93.35
63051;SHT30;49136;47.416;19.402;2023-07-24T00:34:57;18.68;94.22
63051;SHT30;49136;47.416;19.402;2023-07-24T00:37:24;18.69;93.65
63051;SHT30;49136;47.416;19.402;2023-07-24T00:39:49;18.67;94.66
63051;SHT30;49136;47.416;19.402;2023-07-24T00:42:14;18.75;94.84
63051;SHT30;49136;47.416;19.402;2023-07-24T00:44:40;18.69;94.22
63051;SHT30;49136;47.416;19.402;2023-07-24T00:47:05;18.69;94.76
63051;SHT30;49136;47.416;19.402;2023-07-24T00:49:31;18.69;94.01
63051;SHT30;49136;47.416;19.402;2023-07-24T00:51:57;18.69;93.70
63051;SHT30;49136;47.416;19.402;2023-07-24T00:54:23;18.72;93.93
63051;SHT30;49136;47.416;19.402;2023-07-24T00:56:49;18.69;94.91
63051;SHT30;49136;47.416;19.402;2023-07-24T00:59:15;18.69;94.81
63051;SHT30;49136;47.416;19.402;2023-07-24T01:01:41;18.65;95.50
63051;SHT30;49136;47.416;19.402;2023-07-24T01:04:07;18.64;95.10
63051;SHT30;49136;47.416;19.402;2023-07-24T01:06:32;18.64;95.33
63051;SHT30;49136;47.416;19.402;2023-07-24T01:08:58;18.64;95.69
63051;SHT30;49136;47.416;19.402;2023-07-24T01:11:35;18.60;95.11
63051;SHT30;49136;47.416;19.402;2023-07-24T01:17:00;18.60;96.65
63051;SHT30;49136;47.416;19.402;2023-07-24T01:19:44;18.60;96.45
63051;SHT30;49136;47.416;19.402;2023-07-24T01:22:25;18.58;95.86
63051;SHT30;49136;47.416;19.402;2023-07-24T01:25:27;18.57;96.32
63051;SHT30;49136;47.416;19.402;2023-07-24T01:27:56;18.54;96.50
63051;SHT30;49136;47.416;19.402;2023-07-24T01:30:22;18.55;96.67
63051;SHT30;49136;47.416;19.402;2023-07-24T01:32:48;18.50;96.80
63051;SHT30;49136;47.416;19.402;2023-07-24T01:35:14;18.48;96.89
63051;SHT30;49136;47.416;19.402;2023-07-24T01:37:39;18.53;97.25
63051;SHT30;49136;47.416;19.402;2023-07-24T01:40:08;18.54;97.08
63051;SHT30;49136;47.416;19.402;2023-07-24T01:42:34;18.55;97.20
63051;SHT30;49136;47.416;19.402;2023-07-24T01:45:02;18.64;97.53
63051;SHT30;49136;47.416;19.402;2023-07-24T01:47:28;18.71;97.46
63051;SHT30;49136;47.416;19.402;2023-07-24T01:49:53;18.72;97.06
63051;SHT30;49136;47.416;19.402;2023-07-24T01:52:19;18.74;97.56
63051;SHT30;49136;47.416;19.402;2023-07-24T01:54:44;18.75;97.34
63051;SHT30;49136;47.416;19.402;2023-07-24T01:57:10;18.72;97.88
63051;SHT30;49136;47.416;19.402;2023-07-24T01:59:35;18.75;98.13
63051;SHT30;49136;47.416;19.402;2023-07-24T02:02:00;18.76;97.84
63051;SHT30;49136;47.416;19.402;2023-07-24T02:04:26;18.75;97.91
63051;SHT30;49136;47.416;19.402;2023-07-24T02:06:51;18.88;98.28
63051;SHT30;49136;47.416;19.402;2023-07-24T02:09:20;18.96;98.23
63051;SHT30;49136;47.416;19.402;2023-07-24T02:11:45;18.98;97.93
63051;SHT30;49136;47.416;19.402;2023-07-24T02:14:12;19.00;97.37
63051;SHT30;49136;47.416;19.402;2023-07-24T02:16:38;19.03;96.66
63051;SHT30;49136;47.416;19.402;2023-07-24T02:19:03;19.06;96.26
63051;SHT30;49136;47.416;19.402;2023-07-24T02:21:29;19.13;97.06
63051;SHT30;49136;47.416;19.402;2023-07-24T02:23:54;19.19;96.78
63051;SHT30;49136;47.416;19.402;2023-07-24T02:26:20;19.19;97.20
63051;SHT30;49136;47.416;19.402;2023-07-24T02:28:45;19.27;97.54
63051;SHT30;49136;47.416;19.402;2023-07-24T02:31:11;19.27;96.88
63051;SHT30;49136;47.416;19.402;2023-07-24T02:33:37;19.28;96.87
63051;SHT30;49136;47.416;19.402;2023-07-24T02:36:02;19.27;97.02
63051;SHT30;49136;47.416;19.402;2023-07-24T02:38:28;19.28;97.06
63051;SHT30;49136;47.416;19.402;2023-07-24T02:40:53;19.34;97.11
63051;SHT30;49136;47.416;19.402;2023-07-24T02:43:19;19.33;97.08
63051;SHT30;49136;47.416;19.402;2023-07-24T02:45:44;19.37;97.35
63051;SHT30;49136;47.416;19.402;2023-07-24T02:48:09;19.35;96.63
63051;SHT30;49136;47.416;19.402;2023-07-24T02:50:35;19.37;97.38
63051;SHT30;49136;47.416;19.402;2023-07-24T02:53:00;19.35;97.20
63051;SHT30;49136;47.416;19.402;2023-07-24T02:55:26;19.37;97.53
63051;SHT30;49136;47.416;19.402;2023-07-24T02:57:51;19.40;96.88
63051;SHT30;49136;47.416;19.402;2023-07-24T03:00:17;19.40;96.66
63051;SHT30;49136;47.416;19.402;2023-07-24T03:02:42;19.43;97.07
63051;SHT30;49136;47.416;19.402;2023-07-24T03:05:08;19.44;96.42
63051;SHT30;49136;47.416;19.402;2023-07-24T03:07:33;19.53;96.81
63051;SHT30;49136;47.416;19.402;2023-07-24T03:09:59;19.50;96.46
63051;SHT30;49136;47.416;19.402;2023-07-24T03:12:24;19.53;96.70
63051;SHT30;49136;47.416;19.402;2023-07-24T03:14:50;19.59;96.90
63051;SHT30;49136;47.416;19.402;2023-07-24T03:17:15;19.59;96.37
63051;SHT30;49136;47.416;19.402;2023-07-24T03:19:41;19.61;96.26
63051;SHT30;49136;47.416;19.402;2023-07-24T03:22:07;19.65;96.05
63051;SHT30;49136;47.416;19.402;2023-07-24T03:24:33;19.68;96.26
63051;SHT30;49136;47.416;19.402;2023-07-24T03:26:59;19.72;96.30
63051;SHT30;49136;47.416;19.402;2023-07-24T03:29:28;19.75;95.96
63051;SHT30;49136;47.416;19.402;2023-07-24T03:31:53;19.78;95.91
63051;SHT30;49136;47.416;19.402;2023-07-24T03:34:19;19.82;95.79
63051;SHT30;49136;47.416;19.402;2023-07-24T03:36:44;19.85;95.84
63051;SHT30;49136;47.416;19.402;2023-07-24T03:39:10;19.87;95.38
63051;SHT30;49136;47.416;19.402;2023-07-24T03:41:39;19.89;95.46
63051;SHT30;49136;47.416;19.402;2023-07-24T03:44:05;19.89;95.44
63051;SHT30;49136;47.416;19.402;2023-07-24T03:46:32;19.87;95.65
63051;SHT30;49136;47.416;19.402;2023-07-24T03:48:57;19.92;95.36
63051;SHT30;49136;47.416;19.402;2023-07-24T03:51:23;19.96;95.27
63051;SHT30;49136;47.416;19.402;2023-07-24T03:53:48;19.93;95.64
63051;SHT30;49136;47.416;19.402;2023-07-24T03:56:14;19.99;95.09
63051;SHT30;49136;47.416;19.402;2023-07-24T03:58:39;20.06;95.22
63051;SHT30;49136;47.416;19.402;2023-07-24T04:01:05;20.10;94.65
63051;SHT30;49136;47.416;19.402;2023-07-24T04:03:30;20.12;94.81
63051;SHT30;49136;47.416;19.402;2023-07-24T04:05:56;20.10;95.34
63051;SHT30;49136;47.416;19.402;2023-07-24T04:08:21;20.10;94.97
63051;SHT30;49136;47.416;19.402;2023-07-24T04:10:47;20.06;95.50
63051;SHT30;49136;47.416;19.402;2023-07-24T04:13:12;20.07;95.69
63051;SHT30;49136;47.416;19.402;2023-07-24T04:15:38;20.09;95.55
63051;SHT30;49136;47.416;19.402;2023-07-24T04:18:04;20.18;95.37
63051;SHT30;49136;47.416;19.402;2023-07-24T04:20:30;20.23;94.99
63051;SHT30;49136;47.416;19.402;2023-07-24T04:22:55;20.30;94.97
63051;SHT30;49136;47.416;19.402;2023-07-24T04:25:21;20.33;95.03
63051;SHT30;49136;47.416;19.402;2023-07-24T04:27:46;20.42;94.68
63051;SHT30;49136;47.416;19.402;2023-07-24T04:30:12;20.52;94.89
63051;SHT30;49136;47.416;19.402;2023-07-24T04:32:37;20.56;94.67
63051;SHT30;49136;47.416;19.402;2023-07-24T04:35:03;20.61;94.06
63051;SHT30;49136;47.416;19.402;2023-07-24T04:37:28;20.65;94.56
63051;SHT30;49136;47.416;19.402;2023-07-24T04:39:53;20.75;93.88
63051;SHT30;49136;47.416;19.402;2023-07-24T04:42:19;20.85;94.50
63051;SHT30;49136;47.416;19.402;2023-07-24T04:44:44;21.11;94.13
63051;SHT30;49136;47.416;19.402;2023-07-24T04:47:10;21.45;93.19
63051;SHT30;49136;47.416;19.402;2023-07-24T04:49:35;21.76;92.56
63051;SHT30;49136;47.416;19.402;2023-07-24T04:52:01;22.10;91.36
63051;SHT30;49136;47.416;19.402;2023-07-24T04:54:26;22.29;90.77
63051;SHT30;49136;47.416;19.402;2023-07-24T04:56:51;22.57;90.74
63051;SHT30;49136;47.416;19.402;2023-07-24T04:59:17;22.84;89.60
63051;SHT30;49136;47.416;19.402;2023-07-24T05:01:42;23.05;88.60
63051;SHT30;49136;47.416;19.402;2023-07-24T05:04:08;23.35;88.32
63051;SHT30;49136;47.416;19.402;2023-07-24T05:06:33;23.59;87.47
63051;SHT30;49136;47.416;19.402;2023-07-24T05:09:01;23.85;87.08
63051;SHT30;49136;47.416;19.402;2023-07-24T05:11:26;24.09;86.12
63051;SHT30;49136;47.416;19.402;2023-07-24T05:13:52;24.36;85.66
63051;SHT30;49136;47.416;19.402;2023-07-24T05:16:18;24.57;84.68
63051;SHT30;49136;47.416;19.402;2023-07-24T05:18:44;24.85;84.64
63051;SHT30;49136;47.416;19.402;2023-07-24T05:21:09;25.12;83.08
63051;SHT30;49136;47.416;19.402;2023-07-24T05:23:35;25.39;82.45
63051;SHT30;49136;47.416;19.402;2023-07-24T05:26:01;25.50;82.43
63051;SHT30;49136;47.416;19.402;2023-07-24T05:28:27;25.75;81.41
63051;SHT30;49136;47.416;19.402;2023-07-24T05:30:53;25.84;81.35
63051;SHT30;49136;47.416;19.402;2023-07-24T05:33:19;25.92;80.02
63051;SHT30;49136;47.416;19.402;2023-07-24T05:35:44;26.05;79.77
63051;SHT30;49136;47.416;19.402;2023-07-24T05:38:10;26.15;80.72
63051;SHT30;49136;47.416;19.402;2023-07-24T05:40:35;26.39;79.75
63051;SHT30;49136;47.416;19.402;2023-07-24T05:43:01;26.58;78.89
63051;SHT30;49136;47.416;19.402;2023-07-24T05:45:27;26.74;77.89
63051;SHT30;49136;47.416;19.402;2023-07-24T05:47:53;27.00;77.29
63051;SHT30;49136;47.416;19.402;2023-07-24T05:50:18;27.06;78.25
63051;SHT30;49136;47.416;19.402;2023-07-24T05:52:44;27.22;77.01
63051;SHT30;49136;47.416;19.402;2023-07-24T05:55:09;27.30;76.51
63051;SHT30;49136;47.416;19.402;2023-07-24T05:57:35;27.43;76.66
63051;SHT30;49136;47.416;19.402;2023-07-24T06:00:02;27.47;76.30
63051;SHT30;49136;47.416;19.402;2023-07-24T06:02:28;27.50;76.45
63051;SHT30;49136;47.416;19.402;2023-07-24T06:04:53;27.57;75.58
63051;SHT30;49136;47.416;19.402;2023-07-24T06:07:18;27.61;76.83
63051;SHT30;49136;47.416;19.402;2023-07-24T06:09:44;27.59;76.61
63051;SHT30;49136;47.416;19.402;2023-07-24T06:12:09;27.66;77.22
63051;SHT30;49136;47.416;19.402;2023-07-24T06:14:35;27.76;75.46
63051;SHT30;49136;47.416;19.402;2023-07-24T06:17:00;27.85;75.80
63051;SHT30;49136;47.416;19.402;2023-07-24T06:19:25;27.88;75.50
63051;SHT30;49136;47.416;19.402;2023-07-24T06:21:51;27.88;75.28
63051;SHT30;49136;47.416;19.402;2023-07-24T06:24:16;27.89;75.74
63051;SHT30;49136;47.416;19.402;2023-07-24T06:26:43;28.16;76.71
63051;SHT30;49136;47.416;19.402;2023-07-24T06:29:08;28.22;75.13
63051;SHT30;49136;47.416;19.402;2023-07-24T06:31:34;28.11;76.25
63051;SHT30;49136;47.416;19.402;2023-07-24T06:33:59;28.24;75.58
63051;SHT30;49136;47.416;19.402;2023-07-24T06:36:24;28.40;75.10
63051;SHT30;49136;47.416;19.402;2023-07-24T06:38:50;28.48;75.42
63051;SHT30;49136;47.416;19.402;2023-07-24T06:41:15;28.49;74.81
63051;SHT30;49136;47.416;19.402;2023-07-24T06:43:41;28.41;74.42
63051;SHT30;49136;47.416;19.402;2023-07-24T06:46:07;28.55;75.08
63051;SHT30;49136;47.416;19.402;2023-07-24T06:48:32;28.59;75.77
63051;SHT30;49136;47.416;19.402;2023-07-24T06:50:58;28.73;74.61
63051;SHT30;49136;47.416;19.402;2023-07-24T06:53:23;28.87;74.18
63051;SHT30;49136;47.416;19.402;2023-07-24T06:55:48;28.90;74.55
63051;SHT30;49136;47.416;19.402;2023-07-24T06:58:14;28.96;74.42
63051;SHT30;49136;47.416;19.402;2023-07-24T07:00:39;29.03;74.49
63051;SHT30;49136;47.416;19.402;2023-07-24T07:03:05;29.03;73.97
63051;SHT30;49136;47.416;19.402;2023-07-24T07:05:31;29.10;74.42
63051;SHT30;49136;47.416;19.402;2023-07-24T07:07:57;29.13;72.88
63051;SHT30;49136;47.416;19.402;2023-07-24T07:10:22;29.24;72.43
63051;SHT30;49136;47.416;19.402;2023-07-24T07:12:48;29.24;72.47
63051;SHT30;49136;47.416;19.402;2023-07-24T07:15:13;29.02;72.88
63051;SHT30;49136;47.416;19.402;2023-07-24T07:17:39;29.07;72.47
63051;SHT30;49136;47.416;19.402;2023-07-24T07:20:05;29.02;72.87
63051;SHT30;49136;47.416;19.402;2023-07-24T07:22:31;29.11;73.45
63051;SHT30;49136;47.416;19.402;2023-07-24T07:24:56;29.31;73.46
63051;SHT30;49136;47.416;19.402;2023-07-24T07:27:22;29.15;74.18
63051;SHT30;49136;47.416;19.402;2023-07-24T07:29:47;29.39;73.77
63051;SHT30;49136;47.416;19.402;2023-07-24T07:32:13;29.52;72.22
63051;SHT30;49136;47.416;19.402;2023-07-24T07:34:38;29.61;73.83
63051;SHT30;49136;47.416;19.402;2023-07-24T07:37:05;29.65;72.12
63051;SHT30;49136;47.416;19.402;2023-07-24T07:39:31;29.72;70.84
63051;SHT30;49136;47.416;19.402;2023-07-24T07:41:56;29.74;71.48
63051;SHT30;49136;47.416;19.402;2023-07-24T07:44:22;29.72;73.03
63051;SHT30;49136;47.416;19.402;2023-07-24T07:46:47;29.86;70.55
63051;SHT30;49136;47.416;19.402;2023-07-24T07:49:13;29.94;70.64
63051;SHT30;49136;47.416;19.402;2023-07-24T07:51:38;30.08;70.22
63051;SHT30;49136;47.416;19.402;2023-07-24T07:54:04;30.11;71.59
63051;SHT30;49136;47.416;19.402;2023-07-24T07:56:29;30.13;71.74
63051;SHT30;49136;47.416;19.402;2023-07-24T07:58:55;30.27;69.92
63051;SHT30;49136;47.416;19.402;2023-07-24T08:01:20;30.45;71.46
63051;SHT30;49136;47.416;19.402;2023-07-24T08:03:46;30.55;68.26
63051;SHT30;49136;47.416;19.402;2023-07-24T08:06:11;30.59;68.19
63051;SHT30;49136;47.416;19.402;2023-07-24T08:08:37;30.65;68.68
63051;SHT30;49136;47.416;19.402;2023-07-24T08:11:07;30.57;68.17
63051;SHT30;49136;47.416;19.402;2023-07-24T08:13:33;30.62;66.71
63051;SHT30;49136;47.416;19.402;2023-07-24T08:16:00;30.77;65.96
63051;SHT30;49136;47.416;19.402;2023-07-24T08:18:29;30.87;64.68
63051;SHT30;49136;47.416;19.402;2023-07-24T08:20:54;31.01;64.25
63051;SHT30;49136;47.416;19.402;2023-07-24T08:23:20;31.17;65.29
63051;SHT30;49136;47.416;19.402;2023-07-24T08:25:53;31.31;62.78
63051;SHT30;49136;47.416;19.402;2023-07-24T08:28:18;31.33;62.43
63051;SHT30;49136;47.416;19.402;2023-07-24T08:30:44;31.31;64.87
63051;SHT30;49136;47.416;19.402;2023-07-24T08:33:09;31.47;62.73
63051;SHT30;49136;47.416;19.402;2023-07-24T08:35:34;31.43;63.47
63051;SHT30;49136;47.416;19.402;2023-07-24T08:38:00;31.51;63.54
63051;SHT30;49136;47.416;19.402;2023-07-24T08:40:25;31.69;61.57
63051;SHT30;49136;47.416;19.402;2023-07-24T08:42:51;31.81;61.60
63051;SHT30;49136;47.416;19.402;2023-07-24T08:45:18;31.92;62.27
63051;SHT30;49136;47.416;19.402;2023-07-24T08:47:45;31.85;61.37
63051;SHT30;49136;47.416;19.402;2023-07-24T08:50:11;31.95;61.36
63051;SHT30;49136;47.416;19.402;2023-07-24T08:52:40;32.07;60.49
63051;SHT30;49136;47.416;19.402;2023-07-24T08:55:07;31.80;62.12
63051;SHT30;49136;47.416;19.402;2023-07-24T08:57:33;31.91;61.38
63051;SHT30;49136;47.416;19.402;2023-07-24T08:59:59;31.92;60.51
63051;SHT30;49136;47.416;19.402;2023-07-24T09:02:26;32.01;61.74
63051;SHT30;49136;47.416;19.402;2023-07-24T09:04:51;32.19;61.85
63051;SHT30;49136;47.416;19.402;2023-07-24T09:07:16;32.26;59.60
63051;SHT30;49136;47.416;19.402;2023-07-24T09:09:42;32.25;60.91
63051;SHT30;49136;47.416;19.402;2023-07-24T09:12:08;32.40;61.34
63051;SHT30;49136;47.416;19.402;2023-07-24T09:14:33;32.61;59.58
63051;SHT30;49136;47.416;19.402;2023-07-24T09:17:06;32.71;56.74
63051;SHT30;49136;47.416;19.402;2023-07-24T09:19:32;32.66;53.52
63051;SHT30;49136;47.416;19.402;2023-07-24T09:22:12;32.56;53.07
63051;SHT30;49136;47.416;19.402;2023-07-24T09:24:53;32.52;54.61
63051;SHT30;49136;47.416;19.402;2023-07-24T09:27:19;32.66;54.73
63051;SHT30;49136;47.416;19.402;2023-07-24T09:29:45;32.64;56.66
63051;SHT30;49136;47.416;19.402;2023-07-24T09:32:31;32.74;55.92
63051;SHT30;49136;47.416;19.402;2023-07-24T09:34:59;32.84;54.43
63051;SHT30;49136;47.416;19.402;2023-07-24T09:37:28;32.95;53.95
63051;SHT30;49136;47.416;19.402;2023-07-24T09:39:54;33.07;54.73
63051;SHT30;49136;47.416;19.402;2023-07-24T09:44:54;33.18;51.94
63051;SHT30;49136;47.416;19.402;2023-07-24T09:47:20;33.21;52.42
63051;SHT30;49136;47.416;19.402;2023-07-24T09:49:45;33.23;53.30
63051;SHT30;49136;47.416;19.402;2023-07-24T09:52:12;33.35;53.12
63051;SHT30;49136;47.416;19.402;2023-07-24T09:54:46;33.30;53.62
63051;SHT30;49136;47.416;19.402;2023-07-24T09:57:14;33.08;56.67
63051;SHT30;49136;47.416;19.402;2023-07-24T09:59:40;33.47;53.47
63051;SHT30;49136;47.416;19.402;2023-07-24T10:02:10;33.67;52.22
63051;SHT30;49136;47.416;19.402;2023-07-24T10:04:36;33.80;53.55
63051;SHT30;49136;47.416;19.402;2023-07-24T10:07:04;33.80;52.60
63051;SHT30;49136;47.416;19.402;2023-07-24T10:09:30;33.82;53.07
63051;SHT30;49136;47.416;19.402;2023-07-24T10:11:57;33.88;53.57
63051;SHT30;49136;47.416;19.402;2023-07-24T10:14:23;33.95;52.67
63051;SHT30;49136;47.416;19.402;2023-07-24T10:16:49;34.13;48.77
63051;SHT30;49136;47.416;19.402;2023-07-24T10:19:20;34.16;48.38
63051;SHT30;49136;47.416;19.402;2023-07-24T10:21:51;34.13;48.85
63051;SHT30;49136;47.416;19.402;2023-07-24T10:24:16;34.27;50.87
63051;SHT30;49136;47.416;19.402;2023-07-24T10:26:42;34.44;49.06
63051;SHT30;49136;47.416;19.402;2023-07-24T10:29:09;34.47;47.15
63051;SHT30;49136;47.416;19.402;2023-07-24T10:31:35;34.50;47.65
63051;SHT30;49136;47.416;19.402;2023-07-24T10:34:04;34.56;46.67
63051;SHT30;49136;47.416;19.402;2023-07-24T10:36:33;34.70;46.80
63051;SHT30;49136;47.416;19.402;2023-07-24T10:38:59;34.88;48.13
63051;SHT30;49136;47.416;19.402;2023-07-24T10:41:36;34.92;47.44
63051;SHT30;49136;47.416;19.402;2023-07-24T10:44:02;35.02;46.25
63051;SHT30;49136;47.416;19.402;2023-07-24T10:46:39;35.11;45.92
63051;SHT30;49136;47.416;19.402;2023-07-24T10:49:05;35.23;47.73
63051;SHT30;49136;47.416;19.402;2023-07-24T10:51:31;35.30;47.65
63051;SHT30;49136;47.416;19.402;2023-07-24T10:54:03;35.37;47.86
63051;SHT30;49136;47.416;19.402;2023-07-24T10:56:28;35.15;51.21
63051;SHT30;49136;47.416;19.402;2023-07-24T10:58:54;35.28;46.65
63051;SHT30;49136;47.416;19.402;2023-07-24T11:01:20;35.26;46.75
63051;SHT30;49136;47.416;19.402;2023-07-24T11:03:46;35.11;46.82
63051;SHT30;49136;47.416;19.402;2023-07-24T11:06:14;34.87;48.05
63051;SHT30;49136;47.416;19.402;2023-07-24T11:08:40;34.61;49.71
63051;SHT30;49136;47.416;19.402;2023-07-24T11:11:06;34.84;48.92
63051;SHT30;49136;47.416;19.402;2023-07-24T11:13:32;35.01;48.15
63051;SHT30;49136;47.416;19.402;2023-07-24T11:16:04;35.15;48.57
63051;SHT30;49136;47.416;19.402;2023-07-24T11:18:30;35.25;47.79
63051;SHT30;49136;47.416;19.402;2023-07-24T11:20:56;35.57;47.81
63051;SHT30;49136;47.416;19.402;2023-07-24T11:23:22;35.87;47.51
63051;SHT30;49136;47.416;19.402;2023-07-24T11:25:50;36.03;45.80
63051;SHT30;49136;47.416;19.402;2023-07-24T11:28:17;35.95;45.82
63051;SHT30;49136;47.416;19.402;2023-07-24T11:30:42;35.95;49.85
63051;SHT30;49136;47.416;19.402;2023-07-24T11:33:10;35.55;47.65
63051;SHT30;49136;47.416;19.402;2023-07-24T11:35:36;35.71;46.73
63051;SHT30;49136;47.416;19.402;2023-07-24T11:38:04;35.96;47.47
63051;SHT30;49136;47.416;19.402;2023-07-24T11:40:35;36.13;45.73
63051;SHT30;49136;47.416;19.402;2023-07-24T11:43:01;36.20;46.83
63051;SHT30;49136;47.416;19.402;2023-07-24T11:45:27;36.47;45.59
63051;SHT30;49136;47.416;19.402;2023-07-24T11:47:53;36.71;44.54
63051;SHT30;49136;47.416;19.402;2023-07-24T11:50:19;36.75;44.94
63051;SHT30;49136;47.416;19.402;2023-07-24T11:52:49;36.92;44.89
63051;SHT30;49136;47.416;19.402;2023-07-24T11:55:19;36.95;45.96
63051;SHT30;49136;47.416;19.402;2023-07-24T11:57:56;36.82;44.83
63051;SHT30;49136;47.416;19.402;2023-07-24T12:00:22;36.78;46.94
63051;SHT30;49136;47.416;19.402;2023-07-24T12:02:48;36.81;45.60
63051;SHT30;49136;47.416;19.402;2023-07-24T12:05:14;36.78;46.26
63051;SHT30;49136;47.416;19.402;2023-07-24T12:07:42;36.71;46.27
63051;SHT30;49136;47.416;19.402;2023-07-24T12:10:09;36.95;45.84
63051;SHT30;49136;47.416;19.402;2023-07-24T12:15:04;36.89;45.60
63051;SHT30;49136;47.416;19.402;2023-07-24T12:17:30;36.77;46.85
63051;SHT30;49136;47.416;19.402;2023-07-24T12:19:55;36.92;45.72
63051;SHT30;49136;47.416;19.402;2023-07-24T12:22:21;37.08;45.60
63051;SHT30;49136;47.416;19.402;2023-07-24T12:24:48;37.08;45.66
63051;SHT30;49136;47.416;19.402;2023-07-24T12:27:13;37.13;45.25
63051;SHT30;49136;47.416;19.402;2023-07-24T12:29:39;37.11;45.93
63051;SHT30;49136;47.416;19.402;2023-07-24T12:32:04;37.08;45.44
63051;SHT30;49136;47.416;19.402;2023-07-24T12:34:30;37.11;46.47
63051;SHT30;49136;47.416;19.402;2023-07-24T12:36:55;37.20;45.14
63051;SHT30;49136;47.416;19.402;2023-07-24T12:39:21;37.23;46.16
63051;SHT30;49136;47.416;19.402;2023-07-24T12:41:46;37.36;44.28
63051;SHT30;49136;47.416;19.402;2023-07-24T12:44:12;37.41;44.73
63051;SHT30;49136;47.416;19.402;2023-07-24T12:46:37;37.53;45.39
63051;SHT30;49136;47.416;19.402;2023-07-24T12:49:02;37.20;44.43
63051;SHT30;49136;47.416;19.402;2023-07-24T12:51:28;37.37;44.99
63051;SHT30;49136;47.416;19.402;2023-07-24T12:53:53;37.50;44.42
63051;SHT30;49136;47.416;19.402;2023-07-24T12:56:19;37.27;46.07
63051;SHT30;49136;47.416;19.402;2023-07-24T12:58:44;37.31;46.10
63051;SHT30;49136;47.416;19.402;2023-07-24T13:01:10;37.61;44.97
63051;SHT30;49136;47.416;19.402;2023-07-24T13:03:35;37.40;45.70
63051;SHT30;49136;47.416;19.402;2023-07-24T13:06:00;37.53;44.18
63051;SHT30;49136;47.416;19.402;2023-07-24T13:08:26;37.53;44.56
63051;SHT30;49136;47.416;19.402;2023-07-24T13:10:51;37.57;44.65
63051;SHT30;49136;47.416;19.402;2023-07-24T13:13:17;37.58;45.12
63051;SHT30;49136;47.416;19.402;2023-07-24T13:15:42;37.74;44.32
63051;SHT30;49136;47.416;19.402;2023-07-24T13:18:08;37.70;43.76
63051;SHT30;49136;47.416;19.402;2023-07-24T13:20:33;37.67;44.80
63051;SHT30;49136;47.416;19.402;2023-07-24T13:22:59;37.64;44.80
63051;SHT30;49136;47.416;19.402;2023-07-24T13:25:24;37.51;45.46
63051;SHT30;49136;47.416;19.402;2023-07-24T13:27:50;37.27;46.51
63051;SHT30;49136;47.416;19.402;2023-07-24T13:30:16;37.48;43.88
63051;SHT30;49136;47.416;19.402;2023-07-24T13:32:41;37.68;43.19
63051;SHT30;49136;47.416;19.402;2023-07-24T13:35:07;37.70;43.80
63051;SHT30;49136;47.416;19.402;2023-07-24T13:37:33;37.64;44.45
63051;SHT30;49136;47.416;19.402;2023-07-24T13:39:58;37.64;45.08
63051;SHT30;49136;47.416;19.402;2023-07-24T13:42:24;37.47;43.65
63051;SHT30;49136;47.416;19.402;2023-07-24T13:44:49;37.36;44.12
63051;SHT30;49136;47.416;19.402;2023-07-24T13:47:16;37.26;44.38
63051;SHT30;49136;47.416;19.402;2023-07-24T13:49:41;37.25;44.43
63051;SHT30;49136;47.416;19.402;2023-07-24T13:52:06;37.31;43.68
63051;SHT30;49136;47.416;19.402;2023-07-24T13:54:32;37.23;43.33
63051;SHT30;49136;47.416;19.402;2023-07-24T13:56:58;37.22;43.99
63051;SHT30;49136;47.416;19.402;2023-07-24T13:59:23;37.09;44.03
63051;SHT30;49136;47.416;19.402;2023-07-24T14:01:49;36.98;44.89
63051;SHT30;49136;47.416;19.402;2023-07-24T14:04:14;36.95;45.34
63051;SHT30;49136;47.416;19.402;2023-07-24T14:06:40;36.74;45.13
63051;SHT30;49136;47.416;19.402;2023-07-24T14:09:06;36.66;45.97
63051;SHT30;49136;47.416;19.402;2023-07-24T14:11:32;36.81;45.14
63051;SHT30;49136;47.416;19.402;2023-07-24T14:13:57;36.70;45.42
63051;SHT30;49136;47.416;19.402;2023-07-24T14:16:23;36.70;45.12
63051;SHT30;49136;47.416;19.402;2023-07-24T14:18:48;36.75;45.00
63051;SHT30;49136;47.416;19.402;2023-07-24T14:21:14;36.50;45.13
63051;SHT30;49136;47.416;19.402;2023-07-24T14:23:39;36.22;46.41
63051;SHT30;49136;47.416;19.402;2023-07-24T14:26:05;36.09;45.70
63051;SHT30;49136;47.416;19.402;2023-07-24T14:28:30;35.84;44.99
63051;SHT30;49136;47.416;19.402;2023-07-24T14:30:56;35.88;45.47
63051;SHT30;49136;47.416;19.402;2023-07-24T14:33:21;35.95;44.63
63051;SHT30;49136;47.416;19.402;2023-07-24T14:35:47;35.77;45.11
63051;SHT30;49136;47.416;19.402;2023-07-24T14:38:13;35.67;45.19
63051;SHT30;49136;47.416;19.402;2023-07-24T14:40:39;35.95;44.91
63051;SHT30;49136;47.416;19.402;2023-07-24T14:43:05;36.30;44.45
63051;SHT30;49136;47.416;19.402;2023-07-24T14:45:31;36.16;44.86
63051;SHT30;49136;47.416;19.402;2023-07-24T14:47:56;35.80;44.68
63051;SHT30;49136;47.416;19.402;2023-07-24T14:50:22;35.43;45.41
63051;SHT30;49136;47.416;19.402;2023-07-24T14:52:47;35.37;45.29
63051;SHT30;49136;47.416;19.402;2023-07-24T14:55:14;35.39;45.69
63051;SHT30;49136;47.416;19.402;2023-07-24T14:57:40;35.15;46.19
63051;SHT30;49136;47.416;19.402;2023-07-24T15:00:07;35.08;46.16
63051;SHT30;49136;47.416;19.402;2023-07-24T15:02:33;35.29;45.99
63051;SHT30;49136;47.416;19.402;2023-07-24T15:04:59;35.64;45.20
63051;SHT30;49136;47.416;19.402;2023-07-24T15:07:24;35.73;46.35
63051;SHT30;49136;47.416;19.402;2023-07-24T15:09:50;35.94;45.54
63051;SHT30;49136;47.416;19.402;2023-07-24T15:12:16;35.89;44.12
63051;SHT30;49136;47.416;19.402;2023-07-24T15:14:42;35.68;44.54
63051;SHT30;49136;47.416;19.402;2023-07-24T15:17:08;35.39;44.84